createdAt,value
2022-08-26T00:00:20.474Z,53161.16
2022-08-26T00:02:49.340Z,53125.38
2022-08-26T00:05:18.024Z,53157.19
2022-08-26T00:07:46.611Z,53147.22
2022-08-26T00:10:17.515Z,53147.22
2022-08-26T00:12:46.158Z,53123.38
2022-08-26T00:15:16.646Z,53153.19
2022-08-26T00:17:45.331Z,53137.28
2022-08-26T00:20:20.909Z,53127.34
2022-08-26T00:22:49.508Z,53125.38
2022-08-26T00:25:19.628Z,53157.19
2022-08-26T00:27:49.019Z,53129.34
2022-08-26T00:30:24.978Z,53155.19
2022-08-26T00:32:57.075Z,53151.22
2022-08-26T00:35:27.962Z,53165.13
2022-08-26T00:37:57.979Z,53157.19
2022-08-26T00:40:31.055Z,53163.13
2022-08-26T00:43:00.748Z,53147.22
2022-08-26T00:45:34.399Z,53194.94
2022-08-26T00:48:04.905Z,53187.00
2022-08-26T00:50:37.381Z,53163.13
2022-08-26T00:53:24.292Z,53185.00
2022-08-26T00:56:01.512Z,53194.94
2022-08-26T00:58:32.861Z,53181.03
2022-08-26T01:01:01.881Z,53192.94
2022-08-26T01:03:33.819Z,53204.88
2022-08-26T01:06:03.856Z,53181.03
2022-08-26T01:08:32.961Z,53188.97
2022-08-26T01:11:04.038Z,53171.09
2022-08-26T01:13:34.157Z,53220.78
2022-08-26T01:16:06.016Z,53190.97
2022-08-26T01:18:36.270Z,53200.91
2022-08-26T01:21:12.644Z,53200.91
2022-08-26T01:23:47.885Z,53220.78
2022-08-26T01:26:22.049Z,53192.94
2022-08-26T01:28:52.368Z,53250.59
2022-08-26T01:31:26.088Z,53228.75
2022-08-26T01:34:02.397Z,53228.75
2022-08-26T01:36:31.118Z,53236.69
2022-08-26T01:39:01.259Z,53216.81
2022-08-26T01:41:35.319Z,53220.78
2022-08-26T01:44:06.406Z,53228.75
2022-08-26T01:46:38.754Z,53228.75
2022-08-26T01:49:09.529Z,53224.75
2022-08-26T01:51:39.895Z,53216.81
2022-08-26T01:54:12.066Z,53228.75
2022-08-26T01:56:43.098Z,53242.66
2022-08-26T01:59:16.435Z,53242.66
2022-08-26T02:01:46.017Z,53208.84
2022-08-26T02:04:20.965Z,53214.81
2022-08-26T02:06:50.276Z,53216.81
2022-08-26T02:09:21.787Z,53222.78
2022-08-26T02:11:51.062Z,53224.75
2022-08-26T02:14:24.377Z,53208.84
2022-08-26T02:16:57.201Z,53214.81
2022-08-26T02:19:29.906Z,53210.84
2022-08-26T02:22:00.733Z,53244.63
2022-08-26T02:24:47.346Z,53212.84
2022-08-26T02:27:16.544Z,53224.75
2022-08-26T02:29:48.429Z,53232.72
2022-08-26T02:32:18.926Z,53224.75
2022-08-26T02:34:48.187Z,53204.88
2022-08-26T02:37:17.653Z,53242.66
2022-08-26T02:39:48.066Z,53232.72
2022-08-26T02:42:16.993Z,53214.81
2022-08-26T02:44:45.411Z,53212.84
2022-08-26T02:47:15.666Z,53226.75
2022-08-26T02:49:47.373Z,53228.75
2022-08-26T02:52:16.782Z,53226.75
2022-08-26T02:54:45.440Z,53204.88
2022-08-26T02:57:15.470Z,53220.78
2022-08-26T02:59:44.256Z,53238.69
2022-08-26T03:02:13.206Z,53177.06
2022-08-26T03:04:58.010Z,53230.72
2022-08-26T03:07:32.342Z,53206.88
2022-08-26T03:10:01.343Z,53224.75
2022-08-26T03:12:38.484Z,53212.84
2022-08-26T03:15:17.315Z,53212.84
2022-08-26T03:17:48.498Z,53222.78
2022-08-26T03:20:19.866Z,53224.75
2022-08-26T03:22:51.532Z,53216.81
2022-08-26T03:25:22.498Z,53230.72
2022-08-26T03:27:53.992Z,53204.88
2022-08-26T03:30:45.266Z,53173.06
2022-08-26T03:33:15.112Z,53230.72
2022-08-26T03:35:47.168Z,53224.75
2022-08-26T03:38:16.774Z,53214.81
2022-08-26T03:40:45.637Z,53206.88
2022-08-26T03:43:17.419Z,53210.84
2022-08-26T03:45:46.621Z,53216.81
2022-08-26T03:48:15.319Z,53218.81
2022-08-26T03:50:44.716Z,53218.81
2022-08-26T03:53:13.465Z,53208.84
2022-08-26T03:55:43.142Z,53236.69
2022-08-26T03:58:12.759Z,53236.69
2022-08-26T04:00:44.025Z,53224.75
2022-08-26T04:03:35.683Z,53228.75
2022-08-26T04:06:04.535Z,53216.81
2022-08-26T04:08:33.210Z,53224.75
2022-08-26T04:11:03.180Z,53204.88
2022-08-26T04:13:32.524Z,53238.69
2022-08-26T04:16:02.459Z,53226.75
2022-08-26T04:18:33.213Z,53224.75
2022-08-26T04:21:07.059Z,53192.94
2022-08-26T04:23:47.824Z,53210.84
2022-08-26T04:26:17.763Z,53232.72
2022-08-26T04:28:46.270Z,53216.81
2022-08-26T04:31:19.195Z,53266.50
2022-08-26T04:33:50.275Z,53232.72
2022-08-26T04:36:19.927Z,53220.78
2022-08-26T04:38:50.848Z,53236.69
2022-08-26T04:41:20.924Z,53254.59
2022-08-26T04:43:50.486Z,53198.91
2022-08-26T04:46:23.524Z,53220.78
2022-08-26T04:48:52.858Z,53258.56
2022-08-26T04:51:28.048Z,53210.84
2022-08-26T04:54:01.201Z,53216.81
2022-08-26T04:56:35.116Z,53232.72
2022-08-26T04:59:07.229Z,53232.72
2022-08-26T05:01:39.448Z,53236.69
2022-08-26T05:04:08.435Z,53248.63
2022-08-26T05:06:37.730Z,53228.75
2022-08-26T05:09:07.293Z,53202.91
2022-08-26T05:11:36.316Z,53268.50
2022-08-26T05:14:06.106Z,53250.59
2022-08-26T05:16:34.931Z,53224.75
2022-08-26T05:19:07.123Z,53238.69
2022-08-26T05:21:38.863Z,53220.78
2022-08-26T05:24:08.083Z,53236.69
2022-08-26T05:26:37.033Z,53230.72
2022-08-26T05:29:06.627Z,53240.66
2022-08-26T05:31:36.098Z,53210.84
2022-08-26T05:34:06.986Z,53206.88
2022-08-26T05:36:38.007Z,53232.72
2022-08-26T05:39:07.925Z,53236.69
2022-08-26T05:41:42.182Z,53234.69
2022-08-26T05:44:13.180Z,53256.56
2022-08-26T05:46:45.454Z,53224.75
2022-08-26T05:49:16.814Z,53238.69
2022-08-26T05:51:47.916Z,53228.75
2022-08-26T05:54:21.931Z,53224.75
2022-08-26T05:56:51.773Z,53228.75
2022-08-26T05:59:24.156Z,53228.75
2022-08-26T06:01:55.074Z,53214.81
2022-08-26T06:04:27.157Z,53238.69
2022-08-26T06:06:57.572Z,53236.69
2022-08-26T06:09:26.846Z,53244.63
2022-08-26T06:11:56.076Z,53206.88
2022-08-26T06:14:26.129Z,53246.63
2022-08-26T06:16:55.286Z,53214.81
2022-08-26T06:19:25.236Z,53242.66
2022-08-26T06:22:23.557Z,53256.56
2022-08-26T06:25:10.341Z,53244.63
2022-08-26T06:27:39.007Z,53248.63
2022-08-26T06:30:13.019Z,53248.63
2022-08-26T06:32:41.810Z,53264.53
2022-08-26T06:35:12.424Z,53252.59
2022-08-26T06:37:42.966Z,53236.69
2022-08-26T06:40:12.702Z,53222.78
2022-08-26T06:42:41.368Z,53240.66
2022-08-26T06:45:11.414Z,53244.63
2022-08-26T06:47:40.236Z,53224.75
2022-08-26T06:50:09.510Z,53220.78
2022-08-26T06:52:42.933Z,53212.84
2022-08-26T06:55:11.622Z,53236.69
2022-08-26T06:57:41.093Z,53216.81
2022-08-26T07:00:11.995Z,53200.91
2022-08-26T07:02:46.879Z,53220.78
2022-08-26T07:05:17.207Z,53216.81
2022-08-26T07:07:48.282Z,53232.72
2022-08-26T07:10:17.282Z,53192.94
2022-08-26T07:12:49.998Z,53216.81
2022-08-26T07:15:19.849Z,53224.75
2022-08-26T07:17:55.633Z,53206.88
2022-08-26T07:20:25.034Z,53210.84
2022-08-26T07:22:55.082Z,53192.94
2022-08-26T07:25:23.910Z,53202.91
2022-08-26T07:27:54.201Z,53220.78
2022-08-26T07:30:23.586Z,53200.91
2022-08-26T07:32:52.178Z,53204.88
2022-08-26T07:35:20.967Z,53187.00
2022-08-26T07:37:51.885Z,53216.81
2022-08-26T07:40:26.406Z,53200.91
2022-08-26T07:42:55.223Z,53171.09
2022-08-26T07:45:24.238Z,53200.91
2022-08-26T07:47:52.790Z,53198.91
2022-08-26T07:50:22.515Z,53188.97
2022-08-26T07:53:11.567Z,53187.00
2022-08-26T07:55:43.223Z,53177.06
2022-08-26T07:58:11.978Z,53210.84
2022-08-26T08:00:42.098Z,53196.94
2022-08-26T08:03:11.831Z,53236.69
2022-08-26T08:05:41.426Z,53210.84
2022-08-26T08:08:27.020Z,53206.88
2022-08-26T08:10:58.434Z,53149.22
2022-08-26T08:13:28.635Z,53190.97
2022-08-26T08:15:57.839Z,53177.06
2022-08-26T08:18:28.614Z,53177.06
2022-08-26T08:21:10.854Z,53181.03
2022-08-26T08:23:46.757Z,53185.00
2022-08-26T08:26:17.845Z,53171.09
2022-08-26T08:28:47.818Z,53177.06
2022-08-26T08:31:45.102Z,53149.22
2022-08-26T08:34:10.591Z,53183.00
2022-08-26T08:36:39.959Z,53165.13
2022-08-26T08:39:08.402Z,53181.03
2022-08-26T08:41:51.342Z,53179.03
2022-08-26T08:47:00.530Z,53173.06
2022-08-26T08:49:29.722Z,53161.16
2022-08-26T08:52:02.712Z,53179.03
2022-08-26T08:54:34.489Z,53161.16
2022-08-26T08:57:12.704Z,53165.13
2022-08-26T08:59:52.122Z,53169.09
2022-08-26T09:02:28.511Z,53183.00
2022-08-26T09:05:15.143Z,53185.00
2022-08-26T09:07:47.355Z,53165.13
2022-08-26T09:10:30.619Z,53151.22
2022-08-26T09:13:02.578Z,53135.31
2022-08-26T09:15:43.084Z,53153.19
2022-08-26T09:18:26.005Z,53163.13
2022-08-26T09:20:59.928Z,53165.13
2022-08-26T09:23:29.569Z,53157.19
2022-08-26T09:26:19.032Z,53173.06
2022-08-26T09:28:57.404Z,53139.28
2022-08-26T09:31:29.409Z,53143.25
2022-08-26T09:34:17.256Z,53151.22
2022-08-26T09:36:48.737Z,53151.22
2022-08-26T09:39:37.581Z,53161.16
2022-08-26T09:42:11.811Z,53179.03
2022-08-26T09:44:56.587Z,53192.94
2022-08-26T09:47:30.123Z,53153.19
2022-08-26T09:50:09.535Z,53145.25
2022-08-26T09:52:40.646Z,53157.19
2022-08-26T09:55:15.711Z,53171.09
2022-08-26T09:57:51.748Z,53153.19
2022-08-26T10:00:29.726Z,53163.13
2022-08-26T10:03:00.301Z,53173.06
2022-08-26T10:05:33.245Z,53161.16
2022-08-26T10:08:02.615Z,53169.09
2022-08-26T10:10:36.781Z,53155.19
2022-08-26T10:13:11.654Z,53171.09
2022-08-26T10:15:50.638Z,53161.16
2022-08-26T10:18:27.204Z,53171.09
2022-08-26T10:21:07.269Z,53145.25
2022-08-26T10:23:42.995Z,53171.09
2022-08-26T10:26:17.670Z,53131.34
2022-08-26T10:28:52.682Z,53141.28
2022-08-26T10:31:30.337Z,53147.22
2022-08-26T10:34:07.430Z,53169.09
2022-08-26T10:37:14.724Z,53155.19
2022-08-26T10:39:57.323Z,53141.28
2022-08-26T10:42:33.585Z,53149.22
2022-08-26T10:45:07.535Z,53145.25
2022-08-26T10:47:49.013Z,53153.19
2022-08-26T10:50:18.273Z,53161.16
2022-08-26T10:53:01.998Z,53181.03
2022-08-26T10:55:37.376Z,53161.16
2022-08-26T10:58:32.441Z,53141.28
2022-08-26T11:01:27.404Z,53159.16
2022-08-26T11:04:06.212Z,53143.25
2022-08-26T11:06:36.992Z,53153.19
2022-08-26T11:09:08.654Z,53153.19
2022-08-26T11:11:49.927Z,53157.19
2022-08-26T11:14:58.432Z,53159.16
2022-08-26T11:18:00.105Z,53153.19
2022-08-26T11:20:41.983Z,53137.28
2022-08-26T11:23:40.276Z,53155.19
2022-08-26T11:26:35.759Z,53129.34
2022-08-26T11:29:13.217Z,53161.16
2022-08-26T11:31:57.623Z,53169.09
2022-08-26T11:34:56.211Z,53155.19
2022-08-26T11:37:34.220Z,53173.06
2022-08-26T11:40:05.551Z,53175.06
2022-08-26T11:42:40.805Z,53133.31
2022-08-26T11:45:20.218Z,53188.97
2022-08-26T11:47:49.469Z,53157.19
2022-08-26T11:50:23.659Z,53133.31
2022-08-26T11:52:56.257Z,53151.22
2022-08-26T11:55:25.865Z,53161.16
2022-08-26T11:57:57.738Z,53177.06
2022-08-26T12:00:33.390Z,53163.13
2022-08-26T12:03:07.739Z,53145.25
2022-08-26T12:05:43.681Z,53157.19
2022-08-26T12:08:19.734Z,53188.97
2022-08-26T12:10:49.790Z,53159.16
2022-08-26T12:13:23.869Z,53169.09
2022-08-26T12:15:56.740Z,53165.13
2022-08-26T12:18:30.011Z,53194.94
2022-08-26T12:21:01.746Z,53169.09
2022-08-26T12:23:44.032Z,53137.28
2022-08-26T12:26:21.049Z,53190.97
2022-08-26T12:28:54.194Z,53131.34
2022-08-26T12:31:27.813Z,53161.16
2022-08-26T12:33:59.298Z,53177.06
2022-08-26T12:36:31.689Z,53165.13
2022-08-26T12:39:10.909Z,53161.16
2022-08-26T12:41:45.814Z,53181.03
2022-08-26T12:44:53.707Z,53175.06
2022-08-26T12:47:41.784Z,53165.13
2022-08-26T12:50:19.784Z,53208.84
2022-08-26T12:52:59.988Z,53200.91
2022-08-26T12:55:40.401Z,53175.06
2022-08-26T12:58:15.501Z,53171.09
2022-08-26T13:00:46.063Z,53177.06
2022-08-26T13:03:43.415Z,53163.13
2022-08-26T13:06:25.931Z,53169.09
2022-08-26T13:08:56.872Z,53206.88
2022-08-26T13:11:29.234Z,53190.97
2022-08-26T13:14:00.994Z,53188.97
2022-08-26T13:16:31.525Z,53157.19
2022-08-26T13:19:02.311Z,53187.00
2022-08-26T13:21:37.429Z,53188.97
2022-08-26T13:24:11.884Z,53188.97
2022-08-26T13:26:43.810Z,53192.94
2022-08-26T13:29:13.026Z,53190.97
2022-08-26T13:31:44.149Z,53177.06
2022-08-26T13:34:18.097Z,53173.06
2022-08-26T13:36:49.708Z,53169.09
2022-08-26T13:39:19.510Z,53188.97
2022-08-26T13:41:52.715Z,53165.13
2022-08-26T13:44:25.700Z,53145.25
2022-08-26T13:46:56.029Z,53159.16
2022-08-26T13:49:28.053Z,53139.28
2022-08-26T13:51:58.179Z,53165.13
2022-08-26T13:54:26.620Z,53175.06
2022-08-26T13:56:56.631Z,53185.00
2022-08-26T13:59:25.126Z,53177.06
2022-08-26T14:01:54.104Z,53145.25
2022-08-26T14:04:27.097Z,53177.06
2022-08-26T14:06:56.072Z,53159.16
2022-08-26T14:09:24.681Z,53161.16
2022-08-26T14:11:54.996Z,53165.13
2022-08-26T14:14:25.351Z,53161.16
2022-08-26T14:17:00.134Z,53165.13
2022-08-26T14:19:31.337Z,53137.28
2022-08-26T14:22:01.916Z,53173.06
2022-08-26T14:24:31.055Z,53147.22
2022-08-26T14:27:00.060Z,53188.97
2022-08-26T14:29:30.148Z,53171.09
2022-08-26T14:32:01.080Z,53157.19
2022-08-26T14:34:29.954Z,53177.06
2022-08-26T14:36:59.850Z,53157.19
2022-08-26T14:39:37.552Z,53157.19
2022-08-26T14:42:09.613Z,53179.03
2022-08-26T14:44:40.047Z,53157.19
2022-08-26T14:47:08.858Z,53196.94
2022-08-26T14:49:38.039Z,53173.06
2022-08-26T14:52:07.223Z,53200.91
2022-08-26T14:54:35.493Z,53192.94
2022-08-26T14:57:07.879Z,53198.91
2022-08-26T14:59:41.710Z,53179.03
2022-08-26T15:02:13.916Z,53212.84
2022-08-26T15:05:02.421Z,53187.00
2022-08-26T15:07:31.338Z,53200.91
2022-08-26T15:10:00.185Z,53190.97
2022-08-26T15:12:29.034Z,53194.94
2022-08-26T15:14:59.717Z,53188.97
2022-08-26T15:17:28.605Z,53165.13
2022-08-26T15:19:57.322Z,53218.81
2022-08-26T15:22:28.545Z,53143.25
2022-08-26T15:24:59.189Z,53238.69
2022-08-26T15:27:28.238Z,53210.84
2022-08-26T15:29:58.634Z,53208.84
2022-08-26T15:32:27.259Z,53200.91
2022-08-26T15:34:55.936Z,53212.84
2022-08-26T15:37:25.002Z,53208.84
2022-08-26T15:39:54.040Z,53224.75
2022-08-26T15:42:22.933Z,53240.66
2022-08-26T15:44:52.487Z,53204.88
2022-08-26T15:47:23.824Z,53212.84
2022-08-26T15:49:52.276Z,53220.78
2022-08-26T15:52:21.312Z,53210.84
2022-08-26T15:54:49.927Z,53198.91
2022-08-26T15:57:19.192Z,53202.91
2022-08-26T15:59:48.566Z,53212.84
2022-08-26T16:02:17.481Z,53220.78
2022-08-26T16:04:47.986Z,53244.63
2022-08-26T16:07:16.961Z,53192.94
2022-08-26T16:09:46.119Z,53200.91
2022-08-26T16:12:21.668Z,53206.88
2022-08-26T16:14:52.683Z,53236.69
2022-08-26T16:17:22.363Z,53214.81
2022-08-26T16:19:52.951Z,53192.94
2022-08-26T16:22:22.438Z,53218.81
2022-08-26T16:24:52.873Z,53183.00
2022-08-26T16:27:23.846Z,53177.06
2022-08-26T16:29:52.623Z,53185.00
2022-08-26T16:32:22.042Z,53161.16
2022-08-26T16:34:56.911Z,53185.00
2022-08-26T16:37:28.286Z,53188.97
2022-08-26T16:39:58.205Z,53185.00
2022-08-26T16:42:27.267Z,53220.78
2022-08-26T16:44:56.459Z,53224.75
2022-08-26T16:47:25.492Z,53183.00
2022-08-26T16:49:54.494Z,53200.91
2022-08-26T16:52:23.492Z,53208.84
2022-08-26T16:54:59.470Z,53179.03
2022-08-26T16:57:28.505Z,53185.00
2022-08-26T16:59:57.581Z,53188.97
2022-08-26T17:02:26.946Z,53175.06
2022-08-26T17:04:55.674Z,53188.97
2022-08-26T17:07:25.478Z,53171.09
2022-08-26T17:09:54.472Z,53188.97
2022-08-26T17:12:25.931Z,53204.88
2022-08-26T17:14:54.683Z,53190.97
2022-08-26T17:17:23.653Z,53183.00
2022-08-26T17:19:52.845Z,53181.03
2022-08-26T17:22:22.738Z,53187.00
2022-08-26T17:24:51.746Z,53183.00
2022-08-26T17:27:20.723Z,53185.00
2022-08-26T17:29:50.930Z,53200.91
2022-08-26T17:32:20.400Z,53198.91
2022-08-26T17:34:49.410Z,53202.91
2022-08-26T17:37:18.129Z,53188.97
2022-08-26T17:39:46.670Z,53163.13
2022-08-26T17:42:15.312Z,53190.97
2022-08-26T17:44:46.468Z,53179.03
2022-08-26T17:47:18.759Z,53204.88
2022-08-26T17:49:47.381Z,53200.91
2022-08-26T17:52:16.237Z,53165.13
2022-08-26T17:54:53.672Z,53173.06
2022-08-26T17:57:22.283Z,53200.91
2022-08-26T17:59:50.852Z,53181.03
2022-08-26T18:02:23.168Z,53202.91
2022-08-26T18:04:51.891Z,53200.91
2022-08-26T18:07:20.543Z,53198.91
2022-08-26T18:09:49.129Z,53200.91
2022-08-26T18:12:17.871Z,53196.94
2022-08-26T18:14:46.927Z,53204.88
2022-08-26T18:17:17.524Z,53190.97
2022-08-26T18:19:50.149Z,53216.81
2022-08-26T18:22:18.881Z,53206.88
2022-08-26T18:24:58.257Z,53230.72
2022-08-26T18:27:28.138Z,53190.97
2022-08-26T18:29:57.089Z,53204.88
2022-08-26T18:32:25.627Z,53210.84
2022-08-26T18:34:55.847Z,53185.00
2022-08-26T18:37:25.798Z,53208.84
2022-08-26T18:39:57.620Z,53190.97
2022-08-26T18:42:26.302Z,53175.06
2022-08-26T18:44:55.241Z,53224.75
2022-08-26T18:47:24.080Z,53222.78
2022-08-26T18:49:54.175Z,53214.81
2022-08-26T18:52:24.516Z,53214.81
2022-08-26T18:54:53.281Z,53216.81
2022-08-26T18:57:21.789Z,53206.88
2022-08-26T18:59:50.749Z,53216.81
2022-08-26T19:02:19.519Z,53204.88
2022-08-26T19:04:48.431Z,53212.84
2022-08-26T19:07:17.145Z,53212.84
2022-08-26T19:09:47.322Z,53198.91
2022-08-26T19:12:22.542Z,53208.84
2022-08-26T19:14:56.242Z,53210.84
2022-08-26T19:17:26.030Z,53202.91
2022-08-26T19:19:54.747Z,53222.78
2022-08-26T19:22:23.495Z,53228.75
2022-08-26T19:24:53.923Z,53200.91
2022-08-26T19:27:22.683Z,53220.78
2022-08-26T19:29:51.294Z,53232.72
2022-08-26T19:32:24.307Z,53230.72
2022-08-26T19:34:53.707Z,53222.78
2022-08-26T19:37:22.360Z,53194.94
2022-08-26T19:39:51.649Z,53232.72
2022-08-26T19:42:22.169Z,53220.78
2022-08-26T19:45:24.535Z,53248.63
2022-08-26T19:47:54.183Z,53252.59
2022-08-26T19:50:23.823Z,53222.78
2022-08-26T19:52:52.405Z,53192.94
2022-08-26T19:55:22.548Z,53216.81
2022-08-26T19:57:53.361Z,53200.91
2022-08-26T20:00:24.939Z,53234.69
2022-08-26T20:02:54.004Z,53212.84
2022-08-26T20:05:24.663Z,53216.81
2022-08-26T20:07:53.917Z,53216.81
2022-08-26T20:10:25.188Z,53236.69
2022-08-26T20:12:56.760Z,53210.84
2022-08-26T20:15:25.613Z,53204.88
2022-08-26T20:17:57.915Z,53228.75
2022-08-26T20:20:43.818Z,53216.81
2022-08-26T20:23:12.644Z,53222.78
2022-08-26T20:25:42.995Z,53236.69
2022-08-26T20:28:13.034Z,53232.72
2022-08-26T20:30:42.344Z,53194.94
2022-08-26T20:33:10.908Z,53236.69
2022-08-26T20:35:40.551Z,53250.59
2022-08-26T20:38:10.551Z,53228.75
2022-08-26T20:40:40.827Z,53206.88
2022-08-26T20:43:09.837Z,53236.69
2022-08-26T20:45:40.508Z,53230.72
2022-08-26T20:48:09.234Z,53224.75
2022-08-26T20:50:39.173Z,53256.56
2022-08-26T20:53:08.527Z,53260.53
2022-08-26T20:55:37.185Z,53214.81
2022-08-26T20:58:06.781Z,53226.75
2022-08-26T21:00:35.682Z,53240.66
2022-08-26T21:03:05.662Z,53194.94
2022-08-26T21:05:34.939Z,53236.69
2022-08-26T21:08:04.744Z,53230.72
2022-08-26T21:10:34.014Z,53228.75
2022-08-26T21:13:03.043Z,53240.66
2022-08-26T21:15:32.725Z,53206.88
2022-08-26T21:18:03.518Z,53228.75
2022-08-26T21:20:33.762Z,53256.56
2022-08-26T21:23:03.461Z,53244.63
2022-08-26T21:25:32.359Z,53222.78
2022-08-26T21:28:01.265Z,53220.78
2022-08-26T21:30:30.422Z,53224.75
2022-08-26T21:32:59.154Z,53220.78
2022-08-26T21:35:27.762Z,53240.66
2022-08-26T21:37:58.161Z,53236.69
2022-08-26T21:40:27.662Z,53222.78
2022-08-26T21:42:56.317Z,53236.69
2022-08-26T21:45:25.124Z,53244.63
2022-08-26T21:47:53.748Z,53224.75
2022-08-26T21:50:22.236Z,53206.88
2022-08-26T21:52:50.743Z,53234.69
2022-08-26T21:55:20.963Z,53240.66
2022-08-26T21:57:49.552Z,53228.75
2022-08-26T22:00:19.916Z,53244.63
2022-08-26T22:02:50.533Z,53234.69
2022-08-26T22:05:19.986Z,53250.59
2022-08-26T22:07:48.579Z,53244.63
2022-08-26T22:10:17.776Z,53242.66
2022-08-26T22:12:48.225Z,53232.72
2022-08-26T22:15:19.856Z,53238.69
2022-08-26T22:17:48.511Z,53240.66
2022-08-26T22:20:17.879Z,53240.66
2022-08-26T22:22:46.760Z,53236.69
2022-08-26T22:25:15.769Z,53248.63
2022-08-26T22:27:44.457Z,53246.63
2022-08-26T22:30:15.063Z,53244.63
2022-08-26T22:32:44.043Z,53240.66
2022-08-26T22:35:28.761Z,53248.63
2022-08-26T22:37:58.220Z,53240.66
2022-08-26T22:40:27.153Z,53244.63
2022-08-26T22:42:58.777Z,53240.66
2022-08-26T22:45:32.437Z,53220.78
2022-08-26T22:48:05.509Z,53250.59
2022-08-26T22:50:34.360Z,53248.63
2022-08-26T22:53:03.710Z,53252.59
2022-08-26T22:55:32.297Z,53228.75
2022-08-26T22:58:01.221Z,53268.50
2022-08-26T23:00:32.039Z,53264.53
2022-08-26T23:03:02.225Z,53262.53
2022-08-26T23:05:31.309Z,53266.50
2022-08-26T23:08:00.649Z,53266.50
2022-08-26T23:10:32.827Z,53248.63
2022-08-26T23:13:02.093Z,53256.56
2022-08-26T23:15:32.466Z,53236.69
2022-08-26T23:18:01.098Z,53262.53
2022-08-26T23:20:30.343Z,53246.63
2022-08-26T23:22:59.281Z,53240.66
2022-08-26T23:25:29.757Z,53250.59
2022-08-26T23:28:00.696Z,53232.72
2022-08-26T23:30:32.868Z,53264.53
2022-08-26T23:33:01.580Z,53236.69
2022-08-26T23:35:29.404Z,53244.63
2022-08-26T23:37:58.951Z,53268.50
2022-08-26T23:40:32.275Z,53258.56
2022-08-26T23:43:03.613Z,53262.53
2022-08-26T23:45:35.359Z,53248.63
2022-08-26T23:48:06.592Z,53256.56
2022-08-26T23:50:52.372Z,53276.44
2022-08-26T23:53:23.279Z,53264.53
2022-08-26T23:55:54.232Z,53268.50
2022-08-26T23:58:23.323Z,53256.56
